Time;durP1;ratioP1;P1;durP2;ratioP2;P2;SDS_P1;SDS_P2;PMS_P1;PMS_P2;Temp;Humidity;BMP_temperature;BMP_pressure;BME280_temperature;BME280_humidity;BME280_pressure;Samples;Min_cycle;Max_cycle;Signal;HPM_P1;HPM_P2
2022/02/20 00:00:37;;;;;;;6.60;2.80;;;;;;;3.91;94.71;100509.47;5009128;28;20230;-70
2022/02/20 00:03:03;;;;;;;6.17;3.00;;;;;;;3.90;94.22;100510.28;5025998;28;20194;-70
2022/02/20 00:05:28;;;;;;;6.67;2.70;;;;;;;3.91;94.22;100506.09;5028819;28;20194;-70
2022/02/20 00:07:54;;;;;;;8.03;3.23;;;;;;;3.90;94.94;100500.16;5028785;28;20197;-70
2022/02/20 00:10:19;;;;;;;5.93;2.90;;;;;;;3.91;93.94;100496.81;5028821;28;20673;-70
2022/02/20 00:12:45;;;;;;;7.60;3.00;;;;;;;3.92;94.86;100493.47;5027626;28;20256;-69
2022/02/20 00:15:11;;;;;;;5.77;2.63;;;;;;;3.96;94.47;100494.47;5031719;28;20213;-69
2022/02/20 00:17:36;;;;;;;4.93;2.67;;;;;;;3.96;94.38;100490.25;5032642;28;20225;-70
2022/02/20 00:20:03;;;;;;;6.83;2.50;;;;;;;3.97;94.59;100488.59;5024974;28;20215;-69
2022/02/20 00:22:29;;;;;;;11.90;2.60;;;;;;;3.95;94.76;100478.41;5011618;28;20194;-69
2022/02/20 00:24:57;;;;;;;6.67;2.43;;;;;;;3.95;94.30;100486.00;5012550;28;20183;-70
2022/02/20 00:27:23;;;;;;;8.57;2.47;;;;;;;3.91;94.14;100484.16;5012725;28;20741;-70
2022/02/20 00:29:49;;;;;;;5.77;2.30;;;;;;;3.90;95.27;100477.38;5012717;28;20694;-70
2022/02/20 00:32:14;;;;;;;6.20;2.33;;;;;;;3.91;95.12;100479.09;5020661;28;20202;-69
2022/02/20 00:34:40;;;;;;;4.47;2.40;;;;;;;3.91;94.62;100486.69;5032158;28;20254;-70
2022/02/20 00:37:06;;;;;;;5.23;2.50;;;;;;;3.84;94.97;100481.31;5031007;28;20263;-70
2022/02/20 00:39:31;;;;;;;5.53;1.90;;;;;;;3.88;95.46;100481.53;5032143;28;20191;-70
2022/02/20 00:41:59;;;;;;;5.37;2.40;;;;;;;3.90;95.14;100487.50;5030590;28;20692;-70
2022/02/20 00:44:24;;;;;;;6.60;2.60;;;;;;;3.88;94.82;100489.13;5030535;28;20198;-70
2022/02/20 00:46:50;;;;;;;5.37;2.60;;;;;;;3.84;95.16;100493.97;5032131;28;20190;-70
2022/02/20 00:49:15;;;;;;;8.40;2.17;;;;;;;3.81;94.78;100492.19;5030633;28;20182;-70
2022/02/20 00:51:41;;;;;;;3.90;2.10;;;;;;;3.85;94.86;100490.63;5030603;28;20252;-70
2022/02/20 00:54:09;;;;;;;7.40;2.50;;;;;;;3.87;95.10;100497.50;5032019;28;20189;-70
2022/02/20 00:56:35;;;;;;;4.50;2.63;;;;;;;3.87;94.92;100489.91;5030280;28;20198;-70
2022/02/20 00:59:02;;;;;;;3.63;2.00;;;;;;;3.85;95.33;100490.63;5029774;28;20657;-70
2022/02/20 01:01:27;;;;;;;4.77;1.97;;;;;;;3.88;95.00;100494.19;5031821;28;20260;-70
2022/02/20 01:03:53;;;;;;;4.80;2.13;;;;;;;3.85;95.14;100493.16;5029263;28;20194;-70
2022/02/20 01:06:19;;;;;;;4.83;1.90;;;;;;;3.83;95.49;100497.31;5013947;28;20218;-70
2022/02/20 01:08:45;;;;;;;4.60;1.97;;;;;;;3.80;95.01;100493.00;5010420;28;20783;-70
2022/02/20 01:11:10;;;;;;;2.77;1.60;;;;;;;3.75;95.73;100493.63;5021398;28;20252;-70
2022/02/20 01:13:36;;;;;;;3.50;1.43;;;;;;;3.78;95.70;100488.69;5030123;28;20179;-70
2022/02/20 01:16:02;;;;;;;3.30;1.60;;;;;;;3.76;95.43;100487.75;5030095;28;20187;-70
2022/02/20 01:18:27;;;;;;;4.93;1.90;;;;;;;3.77;95.42;100484.44;5031482;28;20186;-70
2022/02/20 01:20:53;;;;;;;3.33;1.70;;;;;;;3.80;95.01;100485.41;5030035;28;20225;-70
2022/02/20 01:23:18;;;;;;;2.83;1.37;;;;;;;3.78;95.08;100499.66;5026183;28;20241;-70
2022/02/20 01:25:44;;;;;;;5.57;1.97;;;;;;;3.75;95.44;100486.91;5021637;28;20194;-70
2022/02/20 01:28:09;;;;;;;3.50;1.57;;;;;;;3.76;95.70;100490.28;5029957;28;20179;-70
2022/02/20 01:30:35;;;;;;;2.23;1.70;;;;;;;3.77;95.72;100487.81;5028112;28;20221;-70
2022/02/20 01:33:01;;;;;;;3.50;1.53;;;;;;;3.79;95.38;100491.28;5029237;28;20217;-70
2022/02/20 01:35:26;;;;;;;3.57;1.60;;;;;;;3.78;95.12;100494.59;5018531;28;20259;-70
2022/02/20 01:37:51;;;;;;;2.53;1.60;;;;;;;3.74;95.24;100497.84;5017485;28;20226;-70
2022/02/20 01:40:18;;;;;;;4.60;1.30;;;;;;;3.79;95.87;100496.34;5018183;28;20219;-70
2022/02/20 01:42:43;;;;;;;3.17;1.60;;;;;;;3.80;95.63;100498.06;5011784;28;20183;-70
2022/02/20 01:45:14;;;;;;;2.77;1.73;;;;;;;3.85;95.78;100505.84;5010573;28;20195;-70
2022/02/20 01:47:40;;;;;;;3.03;1.40;;;;;;;3.83;95.70;100503.25;5009874;28;20314;-70
2022/02/20 01:50:06;;;;;;;5.30;1.87;;;;;;;3.79;95.36;100500.53;5025992;28;20709;-70
2022/02/20 01:52:31;;;;;;;3.43;1.60;;;;;;;3.79;95.99;100498.00;5010991;28;20179;-70
2022/02/20 01:55:07;;;;;;;3.40;1.87;;;;;;;3.79;95.33;100501.41;5016381;28;20189;-70
2022/02/20 01:57:41;;;;;;;5.53;1.80;;;;;;;3.77;95.86;100499.63;5029107;28;20197;-70
2022/02/20 02:00:17;;;;;;;2.40;1.70;;;;;;;3.70;95.77;100490.91;5009541;28;20700;-70
2022/02/20 02:02:47;;;;;;;2.30;1.80;;;;;;;3.73;95.31;100492.69;5039336;28;20226;-70
2022/02/20 02:05:31;;;;;;;2.60;1.73;;;;;;;3.64;95.03;100498.22;5014896;28;20248;-70
2022/02/20 02:07:56;;;;;;;2.63;1.87;;;;;;;3.70;95.22;100500.16;5020256;28;20574;-70
2022/02/20 02:10:31;;;;;;;3.03;1.80;;;;;;;3.74;95.57;100499.47;5009669;28;20232;-70
2022/02/20 02:12:59;;;;;;;2.83;1.90;;;;;;;3.71;95.64;100491.75;5011238;28;20285;-70
2022/02/20 02:15:51;;;;;;;1.97;1.73;;;;;;;3.76;95.47;100490.28;5009232;28;20558;-70
2022/02/20 02:18:39;;;;;;;3.57;1.80;;;;;;;3.74;95.16;100496.94;5002925;28;20199;-70
2022/02/20 02:21:23;;;;;;;4.63;1.67;;;;;;;3.81;95.76;100512.44;5028286;28;20822;-70
2022/02/20 02:23:51;;;;;;;2.37;1.87;;;;;;;3.84;95.52;100510.06;5028611;28;20784;-70
2022/02/20 02:26:35;;;;;;;2.37;1.70;;;;;;;3.84;95.45;100514.25;5010537;28;20317;-70
2022/02/20 02:29:26;;;;;;;3.80;2.10;;;;;;;3.76;95.07;100513.06;5018717;28;20198;-70
2022/02/20 02:31:51;;;;;;;2.57;2.00;;;;;;;3.75;95.75;100521.47;5028254;28;20194;-70
2022/02/20 02:34:17;;;;;;;3.53;2.10;;;;;;;3.70;96.08;100521.28;5024784;28;20696;-70
2022/02/20 02:36:46;;;;;;;3.37;2.33;;;;;;;3.71;95.77;100510.34;5008371;28;20194;-71
2022/02/20 02:39:12;;;;;;;4.13;2.37;;;;;;;3.77;95.61;100502.16;5014651;28;20703;-70
2022/02/20 02:41:38;;;;;;;2.63;2.07;;;;;;;3.71;95.26;100491.75;5008805;28;20215;-70
2022/02/20 02:44:04;;;;;;;3.13;2.27;;;;;;;3.76;94.86;100492.81;5023868;28;20809;-70
2022/02/20 02:46:32;;;;;;;2.73;2.07;;;;;;;3.77;95.14;100492.88;5026729;28;20196;-70
2022/02/20 02:48:57;;;;;;;4.53;2.30;;;;;;;3.74;94.99;100502.00;5028104;28;20186;-70
2022/02/20 02:51:22;;;;;;;2.50;2.00;;;;;;;3.69;94.91;100504.34;5028418;28;20286;-70
2022/02/20 02:53:48;;;;;;;3.40;2.30;;;;;;;3.68;95.32;100511.91;5010470;28;20657;-70
2022/02/20 02:56:14;;;;;;;4.00;2.30;;;;;;;3.72;95.93;100511.22;5028202;28;20183;-70
2022/02/20 02:58:39;;;;;;;2.53;2.07;;;;;;;3.75;95.63;100524.88;5023369;28;20250;-70
2022/02/20 03:01:09;;;;;;;3.77;2.70;;;;;;;3.74;95.27;100532.41;4994763;28;20214;-70
2022/02/20 03:03:35;;;;;;;3.90;2.70;;;;;;;3.77;95.39;100546.03;5022859;28;20284;-70
2022/02/20 03:06:09;;;;;;;3.83;2.60;;;;;;;3.78;95.05;100551.97;5027657;28;20189;-70
2022/02/20 03:08:35;;;;;;;3.27;2.43;;;;;;;3.79;95.37;100535.97;5013131;28;20602;-70
2022/02/20 03:11:03;;;;;;;3.33;2.23;;;;;;;3.80;95.77;100540.22;5011057;28;20210;-70
2022/02/20 03:13:30;;;;;;;2.83;2.40;;;;;;;3.78;95.53;100551.97;5026317;28;20218;-70
2022/02/20 03:15:55;;;;;;;3.97;2.93;;;;;;;3.77;95.39;100552.78;5008424;28;20229;-70
2022/02/20 03:18:22;;;;;;;2.83;2.60;;;;;;;3.76;95.17;100558.63;5026341;28;20189;-70
2022/02/20 03:20:47;;;;;;;5.30;3.03;;;;;;;3.79;95.09;100559.63;5026253;28;20214;-70
2022/02/20 03:23:13;;;;;;;4.83;3.23;;;;;;;3.78;95.38;100565.47;5010213;28;20269;-69
2022/02/20 03:25:39;;;;;;;3.50;3.10;;;;;;;3.78;95.29;100568.00;5024086;28;20177;-70
2022/02/20 03:28:12;;;;;;;5.60;3.40;;;;;;;3.80;95.24;100573.16;5027730;28;20183;-69
2022/02/20 03:30:50;;;;;;;3.73;3.43;;;;;;;3.80;95.50;100584.16;5027298;28;20237;-69
2022/02/20 03:33:17;;;;;;;4.17;3.27;;;;;;;3.81;95.58;100590.06;5027056;28;20796;-70
2022/02/20 03:35:44;;;;;;;4.00;3.40;;;;;;;3.77;95.79;100594.13;5012002;28;20175;-70
2022/02/20 03:38:13;;;;;;;3.93;3.53;;;;;;;3.77;96.30;100599.19;5026412;28;20617;-70
2022/02/20 03:40:39;;;;;;;5.83;4.07;;;;;;;3.80;95.62;100598.47;5007958;28;20211;-70
2022/02/20 03:43:05;;;;;;;5.13;3.97;;;;;;;3.80;96.05;100594.28;5026438;28;20281;-70
2022/02/20 03:45:39;;;;;;;4.40;4.00;;;;;;;3.80;95.65;100601.88;5025962;28;20221;-70
2022/02/20 03:48:04;;;;;;;4.67;4.27;;;;;;;3.80;95.69;100613.66;5027844;28;20218;-70
2022/02/20 03:50:32;;;;;;;5.60;4.00;;;;;;;3.80;96.25;100628.84;5013756;28;20214;-70
2022/02/20 03:52:58;;;;;;;5.67;4.57;;;;;;;3.82;96.00;100624.72;5031650;28;20190;-70
2022/02/20 03:55:26;;;;;;;6.80;5.63;;;;;;;3.82;95.89;100635.69;5031309;28;20205;-70
2022/02/20 03:57:54;;;;;;;6.47;5.77;;;;;;;3.82;95.70;100635.69;5031701;28;20609;-70
2022/02/20 04:00:48;;;;;;;10.23;6.47;;;;;;;3.83;95.76;100647.59;5017246;28;20732;-70
2022/02/20 04:03:49;;;;;;;8.50;7.13;;;;;;;3.85;95.36;100648.50;5024571;28;20191;-70
2022/02/20 04:06:14;;;;;;;10.43;7.27;;;;;;;3.87;95.99;100653.63;5018791;28;20658;-70
2022/02/20 04:08:55;;;;;;;10.63;8.03;;;;;;;3.88;95.98;100652.84;5044142;28;20674;-70
2022/02/20 04:11:21;;;;;;;9.83;8.40;;;;;;;3.91;95.46;100665.63;5030068;28;20260;-70
2022/02/20 04:14:06;;;;;;;10.07;8.83;;;;;;;3.89;95.60;100665.56;5027025;28;20185;-70
2022/02/20 04:16:51;;;;;;;11.73;8.73;;;;;;;3.92;95.70;100675.81;5027275;28;20913;-70
2022/02/20 04:19:17;;;;;;;11.10;9.67;;;;;;;3.93;95.30;100682.63;5019873;28;20188;-70
2022/02/20 04:21:44;;;;;;;8.93;7.90;;;;;;;3.92;95.31;100675.81;5029395;28;20221;-70
2022/02/20 04:24:16;;;;;;;11.13;9.10;;;;;;;3.94;94.84;100693.59;5029210;28;20699;-70
2022/02/20 04:26:42;;;;;;;10.43;8.77;;;;;;;3.93;94.76;100702.88;5030946;28;20277;-70
2022/02/20 04:29:16;;;;;;;10.13;8.63;;;;;;;3.92;94.48;100701.13;5015339;28;20185;-70
2022/02/20 04:31:41;;;;;;;10.53;9.00;;;;;;;3.93;94.63;100702.88;5029449;28;20191;-70
2022/02/20 04:34:08;;;;;;;10.30;8.73;;;;;;;3.95;94.92;100708.88;5030283;28;20186;-70
2022/02/20 04:36:36;;;;;;;9.50;8.53;;;;;;;3.97;94.69;100716.53;5030644;28;20193;-70
2022/02/20 04:39:04;;;;;;;9.60;8.60;;;;;;;3.94;94.00;100721.47;5002287;28;20669;-70
2022/02/20 04:41:30;;;;;;;11.03;8.93;;;;;;;3.96;94.66;100718.19;5011003;28;20265;-70
2022/02/20 04:43:57;;;;;;;10.83;8.73;;;;;;;3.94;94.09;100717.25;5014924;28;20186;-70
2022/02/20 04:46:23;;;;;;;12.10;9.27;;;;;;;3.96;93.74;100727.47;5010851;28;20195;-70
2022/02/20 04:48:50;;;;;;;12.10;9.60;;;;;;;3.95;93.92;100725.75;5011588;28;20195;-70
2022/02/20 04:51:36;;;;;;;12.27;9.27;;;;;;;3.97;94.31;100736.78;5016985;28;20224;-71
2022/02/20 04:54:03;;;;;;;11.73;9.10;;;;;;;3.96;93.62;100727.47;5028757;28;20190;-70
2022/02/20 04:56:30;;;;;;;9.60;8.40;;;;;;;4.00;93.96;100719.22;5030036;28;20186;-70
2022/02/20 04:58:56;;;;;;;10.87;9.33;;;;;;;4.01;93.57;100713.34;5030255;28;20657;-70
2022/02/20 05:01:34;;;;;;;10.33;8.33;;;;;;;3.98;93.39;100718.25;5027722;28;20210;-70
2022/02/20 05:04:13;;;;;;;9.63;8.53;;;;;;;4.03;93.46;100716.78;5029002;28;20186;-70
2022/02/20 05:06:43;;;;;;;10.00;8.87;;;;;;;4.04;93.82;100721.03;5013405;28;20202;-70
2022/02/20 05:09:14;;;;;;;12.40;9.53;;;;;;;4.04;93.79;100718.50;5011724;28;20195;-70
2022/02/20 05:11:49;;;;;;;11.33;9.67;;;;;;;4.05;93.64;100722.81;5027980;28;20198;-70
2022/02/20 05:14:15;;;;;;;12.87;10.00;;;;;;;4.02;93.21;100728.59;5021238;28;20189;-70
2022/02/20 05:16:41;;;;;;;12.10;10.30;;;;;;;4.04;93.46;100728.66;5014666;28;20206;-70
2022/02/20 05:19:12;;;;;;;10.60;9.33;;;;;;;4.01;93.29;100731.91;5010637;28;20195;-70
2022/02/20 05:21:47;;;;;;;12.40;10.03;;;;;;;4.02;93.54;100728.59;5021602;28;20218;-70
2022/02/20 05:24:13;;;;;;;11.23;9.67;;;;;;;4.01;93.84;100726.00;5030434;28;20313;-70
2022/02/20 05:26:40;;;;;;;12.97;10.17;;;;;;;4.01;93.53;100724.31;5029889;28;20182;-70
2022/02/20 05:29:06;;;;;;;12.17;10.30;;;;;;;4.03;94.05;100724.38;5030152;28;20248;-69
2022/02/20 05:31:31;;;;;;;12.90;10.90;;;;;;;3.98;93.59;100731.81;5029854;28;20566;-69
2022/02/20 05:34:02;;;;;;;14.47;10.70;;;;;;;3.98;94.10;100721.66;5029781;28;20218;-69
2022/02/20 05:36:28;;;;;;;13.53;10.70;;;;;;;3.94;93.26;100704.59;5029934;28;20270;-70
2022/02/20 05:39:06;;;;;;;11.90;10.27;;;;;;;3.93;93.29;100702.00;5029698;28;20194;-70
2022/02/20 05:41:31;;;;;;;14.97;11.50;;;;;;;3.92;93.59;100702.81;5029571;28;20258;-70
2022/02/20 05:43:56;;;;;;;14.10;10.60;;;;;;;3.91;93.71;100708.69;5030985;28;20224;-70
2022/02/20 05:46:27;;;;;;;15.30;11.60;;;;;;;3.91;94.00;100708.69;5029559;28;20214;-70
2022/02/20 05:48:53;;;;;;;16.40;11.87;;;;;;;3.94;93.83;100719.81;5029436;28;20637;-70
2022/02/20 05:51:34;;;;;;;14.33;11.43;;;;;;;3.95;93.87;100724.06;5015205;28;20202;-70
2022/02/20 05:54:08;;;;;;;17.23;11.80;;;;;;;3.94;94.09;100726.53;5029632;28;20193;-70
2022/02/20 05:56:34;;;;;;;16.83;12.47;;;;;;;3.92;93.81;100723.06;5029323;28;20190;-70
2022/02/20 05:59:02;;;;;;;14.33;11.47;;;;;;;3.90;93.76;100725.53;5029421;28;20202;-70
2022/02/20 06:01:31;;;;;;;13.37;10.93;;;;;;;3.91;93.94;100726.41;5029295;28;20628;-70
2022/02/20 06:03:59;;;;;;;17.33;12.80;;;;;;;3.89;94.16;100725.47;5025268;28;20262;-69
2022/02/20 06:06:47;;;;;;;18.20;11.97;;;;;;;3.88;94.08;100717.00;5030081;28;20665;-70
2022/02/20 06:09:24;;;;;;;17.37;13.10;;;;;;;3.88;94.04;100722.06;5030272;28;20315;-70
2022/02/20 06:12:10;;;;;;;17.30;12.90;;;;;;;3.89;94.08;100725.47;5029129;28;20244;-70
2022/02/20 06:14:46;;;;;;;17.87;13.37;;;;;;;3.84;95.02;100720.22;5029056;28;20189;-70
2022/02/20 06:17:29;;;;;;;17.70;13.67;;;;;;;3.84;95.15;100726.91;5029074;28;20193;-70
2022/02/20 06:20:24;;;;;;;17.90;13.63;;;;;;;3.82;94.87;100726.00;5030078;28;20226;-70
2022/02/20 06:23:02;;;;;;;17.87;12.87;;;;;;;3.84;95.03;100730.34;5015244;28;20193;-70
2022/02/20 06:25:46;;;;;;;16.30;12.80;;;;;;;3.82;94.77;100720.94;5010611;28;20186;-70
2022/02/20 06:28:15;;;;;;;18.23;13.63;;;;;;;3.84;95.47;100726.91;5025929;28;20194;-70
2022/02/20 06:30:40;;;;;;;18.47;13.77;;;;;;;3.81;95.64;100734.38;5025754;28;20202;-70
2022/02/20 06:33:07;;;;;;;19.70;14.00;;;;;;;3.79;95.39;100730.91;5028827;28;20195;-70
2022/02/20 06:35:36;;;;;;;18.80;14.37;;;;;;;3.78;95.38;100739.31;5028740;28;20183;-70
2022/02/20 06:38:01;;;;;;;19.77;14.40;;;;;;;3.80;95.20;100737.72;5030252;28;20182;-69
2022/02/20 06:40:27;;;;;;;17.93;13.80;;;;;;;3.81;95.53;100734.38;5028505;28;20224;-69
2022/02/20 06:42:54;;;;;;;19.10;14.33;;;;;;;3.80;95.35;100733.53;5028867;28;20221;-70
2022/02/20 06:45:24;;;;;;;19.43;14.27;;;;;;;3.79;95.88;100744.47;5028644;28;20186;-70
2022/02/20 06:47:58;;;;;;;18.03;13.20;;;;;;;3.81;95.27;100741.97;5030514;28;20182;-70
2022/02/20 06:50:43;;;;;;;20.37;14.73;;;;;;;3.82;95.96;100739.50;5028766;28;20213;-69
2022/02/20 06:53:17;;;;;;;22.03;15.20;;;;;;;3.81;95.50;100739.44;5028796;28;20197;-69
2022/02/20 06:56:03;;;;;;;17.83;13.23;;;;;;;3.79;95.64;100731.81;5018460;28;20730;-69
2022/02/20 06:58:28;;;;;;;20.30;13.50;;;;;;;3.81;95.61;100735.25;5029904;28;20190;-70
2022/02/20 07:00:53;;;;;;;18.43;12.70;;;;;;;3.83;95.29;100725.19;5029660;28;20264;-69
2022/02/20 07:03:19;;;;;;;17.40;12.27;;;;;;;3.83;95.80;100731.16;5028150;28;20189;-70
2022/02/20 07:05:44;;;;;;;18.03;13.50;;;;;;;3.82;95.22;100736.13;5029283;28;20672;-70
2022/02/20 07:08:09;;;;;;;17.37;12.47;;;;;;;3.84;95.84;100729.44;5029542;28;20673;-69
2022/02/20 07:10:35;;;;;;;16.60;12.30;;;;;;;3.84;95.07;100717.69;5029538;28;20579;-69
2022/02/20 07:13:00;;;;;;;18.47;12.20;;;;;;;3.85;95.21;100728.66;5028998;28;20719;-70
2022/02/20 07:15:26;;;;;;;16.53;10.93;;;;;;;3.83;94.51;100728.63;5029649;28;20728;-70
2022/02/20 07:17:51;;;;;;;16.83;11.33;;;;;;;3.85;94.36;100734.59;5029412;28;20824;-70
2022/02/20 07:20:17;;;;;;;15.53;10.47;;;;;;;3.89;94.82;100730.53;5029229;28;20218;-70
2022/02/20 07:22:42;;;;;;;13.80;9.90;;;;;;;3.88;94.36;100731.31;5029454;28;20186;-70
2022/02/20 07:25:08;;;;;;;13.83;9.90;;;;;;;3.86;93.76;100726.19;5028814;28;20190;-70
2022/02/20 07:27:37;;;;;;;14.07;9.13;;;;;;;3.88;93.17;100731.31;5028072;28;20232;-70
2022/02/20 07:30:03;;;;;;;11.93;8.93;;;;;;;3.91;93.06;100721.34;5029015;28;21046;-70
2022/02/20 07:32:29;;;;;;;11.93;9.27;;;;;;;3.93;93.22;100722.25;5023735;28;20607;-69
2022/02/20 07:34:54;;;;;;;11.07;8.77;;;;;;;3.94;93.63;100718.91;5029096;28;20190;-70
2022/02/20 07:37:19;;;;;;;11.07;8.17;;;;;;;3.91;92.90;100717.13;5028302;28;20241;-69
2022/02/20 07:39:46;;;;;;;11.20;7.80;;;;;;;3.93;93.04;100714.66;5029481;28;20191;-70
2022/02/20 07:42:12;;;;;;;11.33;8.17;;;;;;;3.94;92.70;100718.91;5029353;28;20247;-69
2022/02/20 07:44:37;;;;;;;10.43;8.03;;;;;;;3.93;92.85;100715.53;5029310;28;20234;-70
2022/02/20 07:47:03;;;;;;;9.27;7.03;;;;;;;3.96;92.94;100715.66;4986437;28;20525;-70
2022/02/20 07:49:29;;;;;;;10.27;7.53;;;;;;;3.96;92.80;100719.88;5015630;28;20186;-70
2022/02/20 07:51:55;;;;;;;9.33;6.47;;;;;;;3.95;92.02;100719.00;5016803;28;20697;-70
2022/02/20 07:54:20;;;;;;;8.77;7.03;;;;;;;3.96;91.79;100718.19;5023279;28;20190;-70
2022/02/20 07:56:45;;;;;;;10.30;7.27;;;;;;;3.98;91.74;100721.66;5008700;28;20218;-70
2022/02/20 07:59:11;;;;;;;8.73;6.77;;;;;;;4.02;92.27;100713.41;5007130;28;20241;-70
2022/02/20 08:01:36;;;;;;;8.90;7.03;;;;;;;4.01;92.50;100719.25;5008318;28;20207;-70
2022/02/20 08:04:01;;;;;;;8.97;7.20;;;;;;;4.01;91.87;100721.78;5023097;28;20285;-69
2022/02/20 08:06:27;;;;;;;10.57;7.53;;;;;;;4.02;91.41;100721.00;5012868;28;20290;-69
2022/02/20 08:08:52;;;;;;;8.57;6.60;;;;;;;4.02;91.70;100720.13;4987711;28;20338;-70
2022/02/20 08:11:18;;;;;;;10.50;8.57;;;;;;;4.02;91.26;100710.00;5006747;28;20290;-70
2022/02/20 08:13:44;;;;;;;9.53;7.20;;;;;;;4.00;91.24;100704.84;5007274;28;20601;-70
2022/02/20 08:16:10;;;;;;;9.13;6.97;;;;;;;4.06;91.41;100709.31;5008437;28;20212;-70
2022/02/20 08:18:35;;;;;;;7.43;6.50;;;;;;;4.04;90.74;100696.59;5007459;28;20249;-69
2022/02/20 08:21:01;;;;;;;8.57;6.77;;;;;;;4.02;90.86;100700.75;5020894;28;20242;-70
2022/02/20 08:23:26;;;;;;;7.53;5.87;;;;;;;4.01;90.40;100691.38;5028106;28;20201;-69
2022/02/20 08:25:52;;;;;;;9.40;6.37;;;;;;;4.02;90.86;100695.69;5028259;28;20201;-69
2022/02/20 08:28:17;;;;;;;6.67;5.57;;;;;;;3.97;89.91;100694.63;5010794;28;20187;-70
2022/02/20 08:30:46;;;;;;;6.30;5.40;;;;;;;3.96;90.27;100697.94;5006587;28;20195;-70
2022/02/20 08:33:11;;;;;;;6.30;5.30;;;;;;;3.96;90.14;100687.78;5008255;28;20199;-70
2022/02/20 08:35:37;;;;;;;7.13;5.53;;;;;;;3.99;90.20;100677.81;5008624;28;20199;-69
2022/02/20 08:38:04;;;;;;;7.40;5.80;;;;;;;3.96;90.20;100671.75;5011911;28;20203;-70
2022/02/20 08:40:30;;;;;;;7.23;5.70;;;;;;;3.94;89.59;100670.81;4997887;28;20297;-69
2022/02/20 08:42:56;;;;;;;6.80;5.10;;;;;;;3.94;89.15;100668.28;5031694;28;20202;-69
2022/02/20 08:45:22;;;;;;;7.00;5.60;;;;;;;3.94;89.89;100664.09;5031616;28;20178;-69
2022/02/20 08:47:47;;;;;;;7.87;6.13;;;;;;;3.97;89.42;100653.22;5017816;28;20653;-69
2022/02/20 08:50:14;;;;;;;9.23;5.57;;;;;;;4.00;89.22;100653.34;5031359;28;20210;-70
2022/02/20 08:52:40;;;;;;;8.00;6.23;;;;;;;3.94;90.02;100646.34;5031557;28;20201;-69
2022/02/20 08:55:06;;;;;;;8.17;6.30;;;;;;;3.94;90.14;100640.41;5017897;28;20195;-70
2022/02/20 08:57:32;;;;;;;8.20;6.53;;;;;;;3.94;89.80;100622.69;5010392;28;20183;-69
2022/02/20 08:59:58;;;;;;;9.83;6.60;;;;;;;3.98;90.11;100624.56;5011212;28;20692;-70
2022/02/20 09:02:25;;;;;;;9.10;6.70;;;;;;;3.91;90.88;100615.84;5011404;28;20188;-70
2022/02/20 09:04:50;;;;;;;9.03;6.97;;;;;;;3.93;90.92;100621.84;5009406;28;20684;-70
2022/02/20 09:07:16;;;;;;;10.10;7.50;;;;;;;3.93;91.72;100609.19;5011031;28;20222;-70
2022/02/20 09:09:41;;;;;;;10.80;8.03;;;;;;;3.89;91.78;100601.38;5010849;28;20279;-69
2022/02/20 09:12:07;;;;;;;9.40;7.87;;;;;;;3.88;91.68;100594.59;5009948;28;20198;-70
2022/02/20 09:14:33;;;;;;;9.10;7.13;;;;;;;3.88;92.19;100587.00;5005853;28;20238;-71
2022/02/20 09:17:00;;;;;;;9.53;7.37;;;;;;;3.89;92.38;100573.53;5010961;28;20179;-70
2022/02/20 09:19:26;;;;;;;10.80;7.80;;;;;;;3.89;93.41;100578.59;5010922;28;20233;-71
2022/02/20 09:21:51;;;;;;;10.63;7.93;;;;;;;3.85;93.62;100559.88;5010884;28;20223;-70
2022/02/20 09:24:17;;;;;;;10.60;7.37;;;;;;;3.90;94.01;100555.00;5026244;28;20195;-70
2022/02/20 09:26:43;;;;;;;9.60;7.40;;;;;;;3.88;93.68;100549.00;5010810;28;20347;-71
2022/02/20 09:29:08;;;;;;;10.97;7.87;;;;;;;3.86;93.66;100533.75;5025828;28;20593;-70
2022/02/20 09:31:33;;;;;;;11.17;7.97;;;;;;;3.90;93.72;100527.13;5010421;28;20209;-70
2022/02/20 09:33:59;;;;;;;9.67;7.80;;;;;;;3.90;94.03;100522.06;5010101;28;20658;-70
2022/02/20 09:36:27;;;;;;;10.13;8.33;;;;;;;3.93;94.72;100520.56;5010580;28;20687;-70
2022/02/20 09:38:52;;;;;;;10.50;7.87;;;;;;;3.98;94.46;100510.59;5026068;28;20209;-70
2022/02/20 09:41:17;;;;;;;10.27;8.20;;;;;;;3.97;94.87;100492.00;5019117;28;20206;-71
2022/02/20 09:43:43;;;;;;;11.17;8.97;;;;;;;3.91;95.07;100494.28;5029067;28;20194;-70
2022/02/20 09:46:09;;;;;;;9.10;7.47;;;;;;;3.90;94.67;100479.91;5016219;28;20198;-70
2022/02/20 09:48:36;;;;;;;10.60;8.03;;;;;;;3.90;95.16;100476.50;5028802;28;20262;-71
2022/02/20 09:51:01;;;;;;;11.33;8.93;;;;;;;3.94;94.45;100458.09;5030679;28;20560;-70
2022/02/20 09:53:28;;;;;;;10.70;8.00;;;;;;;4.19;95.41;100466.69;5030620;28;20271;-68
2022/02/20 09:55:54;;;;;;;9.80;8.13;;;;;;;4.28;95.22;100441.69;4990902;28;20242;-68
2022/02/20 09:58:20;;;;;;;11.17;8.53;;;;;;;4.09;94.86;100443.50;4991051;28;20232;-69
2022/02/20 10:00:56;;;;;;;10.60;8.20;;;;;;;4.09;95.00;100439.28;4990904;28;20312;-70
2022/02/20 10:03:33;;;;;;;9.97;7.87;;;;;;;3.98;95.14;100442.22;4994899;28;20202;-69
2022/02/20 10:06:01;;;;;;;9.90;7.90;;;;;;;3.98;94.47;100422.81;5008547;28;20198;-70
2022/02/20 10:08:39;;;;;;;10.80;7.70;;;;;;;3.96;95.17;100413.44;5010309;28;20199;-70
2022/02/20 10:11:25;;;;;;;9.93;7.40;;;;;;;3.97;94.75;100418.56;5009567;28;20289;-70
2022/02/20 10:13:52;;;;;;;10.07;7.50;;;;;;;3.95;94.93;100417.63;5002954;28;20198;-70
2022/02/20 10:16:29;;;;;;;9.70;7.43;;;;;;;3.85;94.83;100409.63;5009993;28;20228;-70
2022/02/20 10:19:02;;;;;;;9.33;7.87;;;;;;;3.80;95.24;100401.88;5010221;28;20348;-70
2022/02/20 10:21:47;;;;;;;7.83;6.70;;;;;;;3.88;94.88;100389.50;5009959;28;20318;-70
2022/02/20 10:24:24;;;;;;;8.23;6.43;;;;;;;3.78;95.33;100379.81;5010163;28;20202;-70
2022/02/20 10:27:12;;;;;;;8.63;6.70;;;;;;;3.83;94.92;100370.72;5009479;28;20206;-69
2022/02/20 10:30:17;;;;;;;7.60;6.17;;;;;;;3.79;95.12;100366.34;5009842;28;20240;-70
2022/02/20 10:32:44;;;;;;;7.27;5.50;;;;;;;3.79;95.26;100364.69;5004338;28;20214;-70
2022/02/20 10:35:12;;;;;;;6.43;5.30;;;;;;;3.73;94.89;100349.25;5009673;28;20195;-70
2022/02/20 10:37:38;;;;;;;8.27;6.77;;;;;;;3.79;95.20;100366.34;5009777;28;20195;-69
2022/02/20 10:40:24;;;;;;;7.43;5.50;;;;;;;3.85;95.25;100346.31;5009882;28;20381;-70
2022/02/20 10:42:51;;;;;;;7.73;6.33;;;;;;;3.85;95.38;100341.25;5029298;28;20304;-70
2022/02/20 10:45:23;;;;;;;7.60;6.03;;;;;;;3.88;95.24;100334.66;5029333;28;20720;-70
2022/02/20 10:47:49;;;;;;;4.93;4.43;;;;;;;3.83;95.27;100317.56;5017224;28;20579;-69
2022/02/20 10:50:17;;;;;;;6.23;4.60;;;;;;;3.77;95.18;100319.88;5027966;28;20259;-70
2022/02/20 10:52:43;;;;;;;5.40;4.27;;;;;;;3.80;95.05;100322.50;5029232;28;20194;-69
2022/02/20 10:55:10;;;;;;;5.70;4.30;;;;;;;3.73;95.50;100323.94;5015700;28;20202;-69
2022/02/20 10:57:37;;;;;;;5.43;4.20;;;;;;;3.84;95.45;100292.31;5009323;28;20186;-69
2022/02/20 11:00:11;;;;;;;5.30;4.47;;;;;;;3.80;95.55;100289.59;5009061;28;20214;-69
2022/02/20 11:02:37;;;;;;;4.73;4.07;;;;;;;3.81;96.01;100271.94;5009718;28;20529;-70
2022/02/20 11:05:03;;;;;;;5.57;4.20;;;;;;;3.79;95.68;100271.03;5009640;28;20202;-70
2022/02/20 11:07:28;;;;;;;6.27;4.00;;;;;;;3.78;95.66;100271.81;5009504;28;20183;-69
2022/02/20 11:09:53;;;;;;;4.47;3.70;;;;;;;3.80;95.66;100254.16;5007239;28;20874;-70
2022/02/20 11:12:21;;;;;;;4.57;3.80;;;;;;;3.84;95.31;100243.34;5009081;28;20666;-70
2022/02/20 11:14:47;;;;;;;4.87;4.27;;;;;;;3.90;95.56;100228.34;5009166;28;20665;-69
2022/02/20 11:17:14;;;;;;;4.50;3.87;;;;;;;3.88;95.56;100217.31;5009032;28;20203;-70
2022/02/20 11:19:41;;;;;;;6.20;3.80;;;;;;;3.85;95.67;100234.91;5009066;28;20183;-70
2022/02/20 11:22:07;;;;;;;6.93;4.60;;;;;;;3.92;96.01;100222.53;5007795;28;20273;-70
2022/02/20 11:24:34;;;;;;;5.13;4.37;;;;;;;4.00;96.37;100192.44;5007436;28;20195;-69
2022/02/20 11:27:02;;;;;;;5.33;4.10;;;;;;;4.06;96.33;100195.19;5008801;28;20253;-70
2022/02/20 11:29:27;;;;;;;5.03;3.87;;;;;;;4.04;96.58;100201.84;5007736;28;20627;-70
2022/02/20 11:31:53;;;;;;;4.73;4.20;;;;;;;4.05;96.94;100184.16;5006711;28;20302;-70
2022/02/20 11:34:19;;;;;;;5.97;4.30;;;;;;;4.13;97.00;100177.69;4997661;28;20336;-70
2022/02/20 11:36:58;;;;;;;5.07;4.53;;;;;;;4.14;96.98;100176.88;5008753;28;20187;-69